Time;durP1;ratioP1;P1;durP2;ratioP2;P2;SDS_P1;SDS_P2;PMS_P1;PMS_P2;Temp;Humidity;BMP_temperature;BMP_pressure;BME280_temperature;BME280_humidity;BME280_pressure;Samples;Min_cycle;Max_cycle;Signal;HPM_P1;HPM_P2
2024/01/30 00:02:14;;;;;;;1999.90;999.90;;;;;;;-3.08;65.85;98348.72;5113017;28;20122;-67
2024/01/30 00:04:42;;;;;;;1999.90;999.90;;;;;;;-3.28;66.20;98347.84;5116207;28;20139;-67
2024/01/30 00:07:09;;;;;;;1999.90;999.90;;;;;;;-3.33;66.72;98349.28;5116944;28;20055;-63
2024/01/30 00:09:40;;;;;;;1999.90;999.90;;;;;;;-3.40;67.38;98348.16;5116914;28;20043;-67
2024/01/30 00:12:07;;;;;;;1999.90;999.90;;;;;;;-3.57;67.47;98355.91;5116826;28;20048;-66
2024/01/30 00:14:34;;;;;;;1999.90;999.90;;;;;;;-3.62;67.91;98353.91;5116738;28;20044;-67
2024/01/30 00:17:01;;;;;;;1999.90;999.90;;;;;;;-3.50;68.41;98353.63;5116760;28;20130;-66
2024/01/30 00:19:28;;;;;;;1999.90;999.90;;;;;;;-3.29;68.84;98343.50;5116687;28;20051;-66
2024/01/30 00:21:55;;;;;;;1999.90;999.90;;;;;;;-3.14;68.60;98345.88;5116709;28;20515;-67
2024/01/30 00:24:22;;;;;;;1999.90;999.90;;;;;;;-2.99;68.68;98348.25;5116536;28;20051;-66
2024/01/30 00:26:52;;;;;;;1999.90;999.90;;;;;;;-2.83;68.67;98347.25;5116692;28;20048;-67
2024/01/30 00:29:20;;;;;;;1999.90;999.90;;;;;;;-2.64;68.17;98344.63;5116650;28;20050;-64
2024/01/30 00:31:47;;;;;;;1999.90;999.90;;;;;;;-2.56;68.20;98349.28;5116381;28;20138;-64
2024/01/30 00:34:14;;;;;;;1999.90;999.90;;;;;;;-2.45;68.03;98354.88;5116347;28;20504;-65
2024/01/30 00:36:41;;;;;;;1999.90;999.90;;;;;;;-2.34;67.90;98351.88;5116318;28;20071;-67
2024/01/30 00:39:09;;;;;;;1999.90;999.90;;;;;;;-2.26;67.44;98355.63;5116275;28;20075;-66
2024/01/30 00:41:36;;;;;;;1999.90;999.90;;;;;;;-2.23;67.20;98350.63;5116268;28;20044;-65
2024/01/30 00:44:05;;;;;;;1999.90;999.90;;;;;;;-2.17;67.09;98356.03;5116179;28;20083;-65
2024/01/30 00:46:32;;;;;;;1999.90;999.90;;;;;;;-2.15;66.47;98353.53;5116140;28;20071;-64
2024/01/30 00:49:05;;;;;;;1999.90;999.90;;;;;;;-2.07;66.40;98348.72;5116217;28;20066;-65
2024/01/30 00:51:33;;;;;;;1999.90;999.90;;;;;;;-1.99;65.82;98355.03;5116205;28;20495;-65
2024/01/30 00:54:00;;;;;;;1999.90;999.90;;;;;;;-1.95;66.06;98356.94;5115923;28;20048;-67
2024/01/30 00:56:27;;;;;;;1999.90;999.90;;;;;;;-1.90;65.86;98357.09;5116054;28;20130;-66
2024/01/30 00:58:54;;;;;;;1999.90;999.90;;;;;;;-1.81;65.32;98354.03;5116053;28;20528;-64
2024/01/30 01:01:22;;;;;;;1999.90;999.90;;;;;;;-1.73;64.72;98362.94;5115782;28;20048;-66
2024/01/30 01:03:49;;;;;;;1999.90;999.90;;;;;;;-1.66;65.08;98358.91;5115859;28;20048;-64
2024/01/30 01:06:16;;;;;;;1999.90;999.90;;;;;;;-1.60;64.55;98359.16;5115743;28;20130;-65
2024/01/30 01:08:43;;;;;;;1999.90;999.90;;;;;;;-1.62;64.92;98358.22;5115772;28;20075;-66
2024/01/30 01:11:10;;;;;;;1999.90;999.90;;;;;;;-1.63;64.47;98358.16;5115644;28;20054;-67
2024/01/30 01:13:37;;;;;;;1999.90;999.90;;;;;;;-1.57;64.35;98351.56;5115974;28;20509;-65
2024/01/30 01:16:05;;;;;;;1999.90;999.90;;;;;;;-1.57;64.21;98350.69;5114464;27;20044;-66
2024/01/30 01:18:34;;;;;;;1999.90;999.90;;;;;;;-1.53;64.51;98353.44;5115542;28;20056;-67
2024/01/30 01:21:01;;;;;;;1999.90;999.90;;;;;;;-1.45;64.23;98346.03;5115378;28;20043;-65
2024/01/30 01:23:28;;;;;;;1999.90;999.90;;;;;;;-1.37;63.33;98345.47;5115764;28;20047;-63
2024/01/30 01:25:55;;;;;;;1999.90;999.90;;;;;;;-1.39;63.34;98335.13;5115348;28;20051;-65
2024/01/30 01:28:22;;;;;;;1999.90;999.90;;;;;;;-1.35;63.19;98343.84;5115413;28;20047;-64
2024/01/30 01:30:49;;;;;;;1999.90;999.90;;;;;;;-1.29;63.10;98349.22;5115672;28;20040;-67
2024/01/30 01:33:17;;;;;;;1999.90;999.90;;;;;;;-1.27;62.58;98348.44;5115222;28;20044;-65
2024/01/30 01:35:45;;;;;;;1999.90;999.90;;;;;;;-1.25;62.50;98342.47;5115165;28;20489;-67
2024/01/30 01:38:12;;;;;;;1999.90;999.90;;;;;;;-1.18;61.92;98354.75;5115123;28;20047;-64
2024/01/30 01:40:41;;;;;;;1999.90;999.90;;;;;;;-1.24;61.89;98351.97;5115236;28;20054;-66
2024/01/30 01:43:08;;;;;;;1999.90;999.90;;;;;;;-1.27;61.90;98343.31;5114945;28;20505;-64
2024/01/30 01:45:35;;;;;;;1999.90;999.90;;;;;;;-1.24;62.21;98341.69;5114955;28;20138;-64
2024/01/30 01:48:02;;;;;;;1999.90;999.90;;;;;;;-1.29;62.25;98334.66;5115291;28;20130;-66
2024/01/30 01:50:29;;;;;;;1999.90;999.90;;;;;;;-1.31;61.70;98336.31;5114985;28;20055;-65
2024/01/30 01:52:58;;;;;;;1999.90;999.90;;;;;;;-1.20;61.59;98341.84;5115024;28;20063;-66
2024/01/30 01:55:27;;;;;;;1999.90;999.90;;;;;;;-1.16;61.44;98337.69;5114881;28;20123;-66
2024/01/30 01:57:55;;;;;;;1999.90;999.90;;;;;;;-1.11;61.15;98340.44;5114994;28;20196;-66
2024/01/30 02:00:22;;;;;;;1999.90;999.90;;;;;;;-1.13;60.86;98345.53;5114585;28;20052;-66
2024/01/30 02:02:49;;;;;;;1999.90;999.90;;;;;;;-1.21;61.46;98340.09;5114697;28;20090;-67
2024/01/30 02:05:16;;;;;;;1999.90;999.90;;;;;;;-1.17;61.18;98341.94;5114621;28;20052;-67
2024/01/30 02:07:44;;;;;;;1999.90;999.90;;;;;;;-1.31;61.29;98340.56;5114896;28;20118;-67
2024/01/30 02:10:13;;;;;;;1999.90;999.90;;;;;;;-1.24;61.63;98336.56;5114575;28;20088;-63
2024/01/30 02:12:40;;;;;;;1999.90;999.90;;;;;;;-1.28;61.57;98335.53;5114510;28;20047;-65
2024/01/30 02:15:07;;;;;;;1999.90;999.90;;;;;;;-1.21;61.46;98328.97;5114717;28;20047;-65
2024/01/30 02:17:34;;;;;;;1999.90;999.90;;;;;;;-1.22;61.42;98329.75;5114454;28;20044;-64
2024/01/30 02:20:03;;;;;;;1999.90;999.90;;;;;;;-1.23;61.58;98322.88;5114485;28;20094;-64
2024/01/30 02:22:33;;;;;;;1999.90;999.90;;;;;;;-1.25;62.05;98319.38;5114394;28;20045;-65
2024/01/30 02:25:00;;;;;;;;;;;;;;;-1.19;62.02;98314.47;5114646;28;20048;-66
2024/01/30 02:27:27;;;;;;;1999.90;999.90;;;;;;;-1.26;62.40;98315.94;5114062;28;19923;-65
2024/01/30 02:29:54;;;;;;;1999.90;999.90;;;;;;;-1.25;62.24;98314.22;5114162;28;20044;-64
2024/01/30 02:32:21;;;;;;;1999.90;999.90;;;;;;;-1.27;62.37;98320.19;5114173;28;20052;-63
2024/01/30 02:34:48;;;;;;;1999.90;999.90;;;;;;;-1.20;62.21;98313.56;5114094;28;20113;-65
2024/01/30 02:37:15;;;;;;;1999.90;999.90;;;;;;;-1.20;62.32;98318.72;5114060;28;20093;-64
2024/01/30 02:39:43;;;;;;;1999.90;999.90;;;;;;;-1.22;62.38;98309.22;5114158;28;20048;-65
2024/01/30 02:42:10;;;;;;;1999.90;999.90;;;;;;;-1.17;61.75;98313.69;5113980;28;20482;-66
2024/01/30 02:44:37;;;;;;;1999.90;999.90;;;;;;;-1.16;61.71;98310.34;5114152;28;20048;-67
2024/01/30 02:47:05;;;;;;;1999.90;999.90;;;;;;;-1.10;61.55;98311.34;5114003;28;20075;-65
2024/01/30 02:49:32;;;;;;;1999.90;999.90;;;;;;;-1.14;61.71;98312.97;5113913;28;20052;-65
2024/01/30 02:51:58;;;;;;;1999.90;999.90;;;;;;;-1.07;61.95;98320.06;5114110;28;20051;-66
2024/01/30 02:54:25;;;;;;;1999.90;999.90;;;;;;;-1.08;61.90;98315.72;5112080;28;20044;-65
2024/01/30 02:56:54;;;;;;;1999.90;999.90;;;;;;;-1.05;61.73;98320.97;5113776;28;20060;-64
2024/01/30 02:59:21;;;;;;;1999.90;999.90;;;;;;;-1.01;61.42;98321.97;5113866;28;20097;-65
2024/01/30 03:01:48;;;;;;;1999.90;999.90;;;;;;;-1.05;62.15;98317.56;5113814;28;20052;-64
2024/01/30 03:04:15;;;;;;;1999.90;999.90;;;;;;;-1.04;62.35;98325.31;5113547;28;20100;-65
2024/01/30 03:06:47;;;;;;;1999.90;999.90;;;;;;;-0.97;62.05;98325.56;5113340;28;20147;-65
2024/01/30 03:09:14;;;;;;;1999.90;999.90;;;;;;;-0.93;62.11;98319.69;5113570;28;20047;-64
2024/01/30 03:11:41;;;;;;;1999.90;999.90;;;;;;;-0.97;62.03;98318.69;5113602;28;20112;-64
2024/01/30 03:14:10;;;;;;;1999.90;999.90;;;;;;;-0.94;62.26;98321.38;5113582;28;20101;-66
2024/01/30 03:16:38;;;;;;;1999.90;999.90;;;;;;;-0.91;62.19;98313.78;5113476;28;20043;-64
2024/01/30 03:19:06;;;;;;;1999.90;999.90;;;;;;;-0.90;61.49;98320.66;5113516;28;20047;-66
2024/01/30 03:21:32;;;;;;;1999.90;999.90;;;;;;;-0.90;61.19;98312.97;5113413;28;20051;-66
2024/01/30 03:23:59;;;;;;;1999.90;999.90;;;;;;;-0.79;61.07;98315.91;5113431;28;20108;-67
2024/01/30 03:26:26;;;;;;;1999.90;999.90;;;;;;;-0.75;60.97;98311.78;5113223;28;20087;-67
2024/01/30 03:28:53;;;;;;;1999.90;999.90;;;;;;;-0.80;60.84;98311.63;5113401;28;20058;-67
2024/01/30 03:31:22;;;;;;;1999.90;999.90;;;;;;;-0.78;61.41;98298.81;5113314;28;20542;-66
2024/01/30 03:33:49;;;;;;;1999.90;999.90;;;;;;;-0.80;60.37;98303.91;5113328;28;20043;-63
2024/01/30 03:36:17;;;;;;;1999.90;999.90;;;;;;;-0.75;60.74;98306.63;5113509;28;20139;-66
2024/01/30 03:38:43;;;;;;;1999.90;999.90;;;;;;;-0.76;60.80;98302.28;5114806;28;20497;-67
2024/01/30 03:41:11;;;;;;;1999.90;999.90;;;;;;;-0.75;60.58;98293.78;5117401;28;20142;-65
2024/01/30 03:43:38;;;;;;;1999.90;999.90;;;;;;;-0.70;60.36;98293.91;5117679;28;20051;-66
2024/01/30 03:46:05;;;;;;;1999.90;999.90;;;;;;;-0.70;60.35;98307.66;5117156;28;20100;-65
2024/01/30 03:48:33;;;;;;;1999.90;999.90;;;;;;;-0.72;60.30;98290.44;5117170;28;20401;-65
2024/01/30 03:51:00;;;;;;;1999.90;999.90;;;;;;;-0.75;60.63;98309.22;5117360;28;20555;-64
2024/01/30 03:53:27;;;;;;;1999.90;999.90;;;;;;;-0.72;60.69;98301.56;5117439;28;20117;-64
2024/01/30 03:55:54;;;;;;;1999.90;999.90;;;;;;;-0.68;60.53;98298.31;5117383;28;20085;-66
2024/01/30 03:58:21;;;;;;;1999.90;999.90;;;;;;;-0.66;60.54;98301.78;5116950;28;20047;-67
2024/01/30 04:00:48;;;;;;;1999.90;999.90;;;;;;;-0.67;61.08;98306.88;5116998;28;20138;-66
2024/01/30 04:03:16;;;;;;;1999.90;999.90;;;;;;;-0.65;61.64;98300.13;5117338;28;20559;-65
2024/01/30 04:05:44;;;;;;;1999.90;999.90;;;;;;;-0.67;61.49;98315.47;5117350;28;20047;-66
2024/01/30 04:08:11;;;;;;;1999.90;999.90;;;;;;;-0.68;61.63;98303.47;5117091;28;20047;-67
2024/01/30 04:10:41;;;;;;;1999.90;999.90;;;;;;;-0.67;62.24;98312.03;5117028;28;20398;-65
2024/01/30 04:13:08;;;;;;;1999.90;999.90;;;;;;;-0.72;62.95;98311.84;5116899;28;20047;-67
2024/01/30 04:15:35;;;;;;;1999.90;999.90;;;;;;;-0.80;63.53;98310.72;5116941;28;20079;-63
2024/01/30 04:18:45;;;;;;;1999.90;999.90;;;;;;;-0.85;63.59;98309.72;5116705;28;20093;-67
2024/01/30 04:21:14;;;;;;;1999.90;999.90;;;;;;;-0.80;63.66;98313.28;5116944;28;20040;-64
2024/01/30 04:23:41;;;;;;;1999.90;999.90;;;;;;;-0.76;63.09;98320.28;5116652;28;20486;-66
2024/01/30 04:26:08;;;;;;;1999.90;999.90;;;;;;;-0.67;62.33;98318.06;5116535;28;20056;-67
2024/01/30 04:28:35;;;;;;;1999.90;999.90;;;;;;;-0.67;62.16;98324.88;5116459;28;20043;-64
2024/01/30 04:31:02;;;;;;;1999.90;999.90;;;;;;;-0.61;62.59;98324.25;5116435;28;20044;-63
2024/01/30 04:33:29;;;;;;;1999.90;999.90;;;;;;;-0.60;62.94;98333.69;5116550;28;20048;-65
2024/01/30 04:35:57;;;;;;;1999.90;999.90;;;;;;;-0.62;63.12;98330.19;5116340;28;20079;-65
2024/01/30 04:38:25;;;;;;;1999.90;999.90;;;;;;;-0.64;63.44;98325.00;5116376;28;20048;-64
2024/01/30 04:40:52;;;;;;;1999.90;999.90;;;;;;;-0.63;63.47;98329.34;5116336;28;20442;-65
2024/01/30 04:43:20;;;;;;;1999.90;999.90;;;;;;;-0.64;63.53;98328.44;5116257;28;20417;-66
2024/01/30 04:45:47;;;;;;;1999.90;999.90;;;;;;;-0.66;64.32;98331.78;5116176;28;20134;-67
2024/01/30 04:48:14;;;;;;;1999.90;999.90;;;;;;;-0.68;64.16;98324.03;5116194;28;20485;-67
2024/01/30 04:50:42;;;;;;;1999.90;999.90;;;;;;;-0.68;64.30;98320.56;5115962;28;20058;-67
2024/01/30 04:53:09;;;;;;;1999.90;999.90;;;;;;;-0.68;64.11;98330.84;5116298;28;20055;-64
2024/01/30 04:55:37;;;;;;;1999.90;999.90;;;;;;;-0.72;64.13;98335.00;5115768;28;20135;-65
2024/01/30 04:58:05;;;;;;;1999.90;999.90;;;;;;;-0.70;64.30;98328.22;5115994;28;20056;-63
2024/01/30 05:00:32;;;;;;;1999.90;999.90;;;;;;;-0.71;64.53;98335.88;5115895;28;20435;-67
2024/01/30 05:03:30;;;;;;;1999.90;999.90;;;;;;;-0.70;64.42;98343.66;5116142;28;20072;-63
2024/01/30 05:05:57;;;;;;;1999.90;999.90;;;;;;;-0.75;64.61;98339.16;5115731;28;20079;-66
2024/01/30 05:08:24;;;;;;;1999.90;999.90;;;;;;;-0.70;64.56;98346.22;5115771;28;20101;-66
2024/01/30 05:10:53;;;;;;;1999.90;999.90;;;;;;;-0.69;64.04;98341.97;5115878;28;20079;-66
2024/01/30 05:13:19;;;;;;;1999.90;999.90;;;;;;;-0.66;63.84;98337.78;5116139;28;20048;-65
2024/01/30 05:15:47;;;;;;;1999.90;999.90;;;;;;;-0.74;64.40;98346.94;5115616;28;20044;-66
2024/01/30 05:18:14;;;;;;;1999.90;999.90;;;;;;;-0.71;64.27;98344.47;5115539;28;20047;-64
2024/01/30 05:20:41;;;;;;;1999.90;999.90;;;;;;;-0.63;64.57;98344.75;5115900;28;20052;-64
2024/01/30 05:23:08;;;;;;;1999.90;999.90;;;;;;;-0.60;64.41;98356.84;5115503;28;20130;-66
2024/01/30 05:25:35;;;;;;;1999.90;999.90;;;;;;;-0.69;64.63;98353.09;5115485;28;20047;-65
2024/01/30 05:28:04;;;;;;;1999.90;999.90;;;;;;;-0.73;65.21;98356.38;5115300;28;20108;-65
2024/01/30 05:30:31;;;;;;;1999.90;999.90;;;;;;;-0.75;65.59;98350.34;5115621;28;20054;-64
2024/01/30 05:32:59;;;;;;;1999.90;999.90;;;;;;;-0.84;65.75;98347.44;5115351;28;20127;-66
2024/01/30 05:35:26;;;;;;;1999.90;999.90;;;;;;;-0.86;65.82;98346.47;5115289;28;20054;-64
2024/01/30 05:37:53;;;;;;;1999.90;999.90;;;;;;;-0.87;66.33;98349.88;5115325;28;20079;-66
2024/01/30 05:40:20;;;;;;;1999.90;999.90;;;;;;;-0.91;66.11;98356.59;5115130;28;20093;-67
2024/01/30 05:42:47;;;;;;;1999.90;999.90;;;;;;;-0.94;66.46;98362.50;5115023;28;20112;-63
2024/01/30 05:45:16;;;;;;;1999.90;999.90;;;;;;;-0.99;66.67;98360.59;5115009;28;20562;-66
2024/01/30 05:47:43;;;;;;;1999.90;999.90;;;;;;;-0.94;66.77;98359.03;5114916;28;20050;-66
2024/01/30 05:50:10;;;;;;;1999.90;999.90;;;;;;;-0.95;66.79;98362.44;5114866;28;20043;-66
2024/01/30 05:52:37;;;;;;;1999.90;999.90;;;;;;;-0.95;67.06;98360.75;5115165;28;20043;-65
2024/01/30 05:55:05;;;;;;;1999.90;999.90;;;;;;;-0.88;67.11;98366.13;5114600;28;20055;-66
2024/01/30 05:57:32;;;;;;;1999.90;999.90;;;;;;;-0.88;66.95;98372.13;5114999;28;20055;-66
2024/01/30 05:59:59;;;;;;;1999.90;999.90;;;;;;;-0.82;66.99;98380.06;5115263;28;20041;-67
2024/01/30 06:02:28;;;;;;;1999.90;999.90;;;;;;;-0.84;66.75;98373.97;5114271;28;20082;-66
2024/01/30 06:04:55;;;;;;;1999.90;999.90;;;;;;;-0.92;67.07;98372.84;5114753;28;20051;-67
2024/01/30 06:07:22;;;;;;;1999.90;999.90;;;;;;;-1.09;67.94;98370.50;5114554;28;20043;-65
2024/01/30 06:09:49;;;;;;;1999.90;999.90;;;;;;;-1.06;68.11;98378.34;5114457;28;20565;-66
2024/01/30 06:12:16;;;;;;;1999.90;999.90;;;;;;;-1.02;67.88;98367.34;5114696;28;20097;-66
2024/01/30 06:14:44;;;;;;;1999.90;999.90;;;;;;;-0.93;67.69;98371.94;5114505;28;20044;-67
2024/01/30 06:17:11;;;;;;;1999.90;999.90;;;;;;;-0.91;67.40;98380.59;5114434;28;20482;-67
2024/01/30 06:19:40;;;;;;;1999.90;999.90;;;;;;;-0.82;67.18;98392.03;5114576;28;20508;-65
2024/01/30 06:22:07;;;;;;;1999.90;999.90;;;;;;;-0.83;67.08;98385.16;5114432;28;20078;-64
2024/01/30 06:24:34;;;;;;;1999.90;999.90;;;;;;;-0.74;66.85;98390.63;5114296;28;20047;-64
2024/01/30 06:27:01;;;;;;;1999.90;999.90;;;;;;;-0.63;66.36;98388.47;5114398;28;20111;-66
2024/01/30 06:29:29;;;;;;;1999.90;999.90;;;;;;;-0.64;66.14;98382.44;5114285;28;20044;-64
2024/01/30 06:31:56;;;;;;;1999.90;999.90;;;;;;;-0.57;66.11;98380.09;5114157;28;20051;-65
2024/01/30 06:34:23;;;;;;;1999.90;999.90;;;;;;;-0.60;65.85;98382.56;5114225;28;20082;-67
2024/01/30 06:36:51;;;;;;;1999.90;999.90;;;;;;;-0.54;65.84;98381.06;5114154;28;20058;-66
2024/01/30 06:39:18;;;;;;;1999.90;999.90;;;;;;;-0.58;65.86;98381.78;5114067;28;20505;-64
2024/01/30 06:41:46;;;;;;;1999.90;999.90;;;;;;;-0.56;65.48;98377.59;5114239;28;20094;-67
2024/01/30 06:44:13;;;;;;;1999.90;999.90;;;;;;;-0.52;65.40;98383.69;5113905;28;20098;-66
2024/01/30 06:46:41;;;;;;;1999.90;999.90;;;;;;;-0.43;65.48;98372.84;5113893;28;20083;-65
2024/01/30 06:49:08;;;;;;;1999.90;999.90;;;;;;;-0.44;64.93;98373.69;5113795;28;20176;-66
2024/01/30 06:51:35;;;;;;;1999.90;999.90;;;;;;;-0.43;65.18;98378.00;5113668;28;20482;-67
2024/01/30 06:54:03;;;;;;;1999.90;999.90;;;;;;;-0.51;64.58;98370.88;5113766;28;20093;-63
2024/01/30 06:56:31;;;;;;;1999.90;999.90;;;;;;;-0.09;64.07;98373.16;5113757;28;20043;-62
2024/01/30 06:58:59;;;;;;;1999.90;999.90;;;;;;;0.22;62.62;98374.19;5114074;28;20519;-64
2024/01/30 07:01:29;;;;;;;1999.90;999.90;;;;;;;1.46;58.33;98384.75;5113783;28;20043;-65
2024/01/30 07:03:56;;;;;;;;;;;;;;;2.63;54.24;98377.38;5114156;28;20043;-65
2024/01/30 07:06:23;;;;;;;1999.90;999.90;;;;;;;3.08;52.55;98377.50;5113654;28;19975;-67
2024/01/30 07:08:51;;;;;;;1999.90;999.90;;;;;;;3.64;49.82;98380.31;5113584;28;20052;-64
2024/01/30 07:11:22;;;;;;;1999.90;999.90;;;;;;;3.59;49.31;98384.53;5113537;28;20090;-66
2024/01/30 07:13:49;;;;;;;1999.90;999.90;;;;;;;3.51;49.58;98369.75;5112693;28;20052;-66
2024/01/30 07:16:16;;;;;;;1999.90;999.90;;;;;;;3.97;49.64;98376.63;5113502;28;20047;-67
2024/01/30 07:18:44;;;;;;;1999.90;999.90;;;;;;;5.08;46.35;98374.88;5113470;28;20078;-65
2024/01/30 07:21:12;;;;;;;1999.90;999.90;;;;;;;4.76;46.04;98381.34;5113501;28;20406;-65
2024/01/30 07:23:41;;;;;;;1999.90;999.90;;;;;;;4.13;47.49;98371.72;5113542;28;20075;-63
2024/01/30 07:26:08;;;;;;;1999.90;999.90;;;;;;;3.16;49.24;98377.63;5113459;28;20060;-67
2024/01/30 07:28:36;;;;;;;1999.90;999.90;;;;;;;1.98;52.07;98376.66;5113587;28;20088;-65
2024/01/30 07:31:03;;;;;;;1999.90;999.90;;;;;;;2.27;53.35;98375.66;5113597;28;20100;-64
2024/01/30 07:33:30;;;;;;;1999.90;999.90;;;;;;;2.77;51.30;98371.66;5113333;28;20558;-67
2024/01/30 07:35:57;;;;;;;1999.90;999.90;;;;;;;2.49;51.38;98371.00;5113356;28;20061;-66
2024/01/30 07:38:25;;;;;;;1999.90;999.90;;;;;;;2.29;52.00;98373.13;5113400;28;20043;-65
2024/01/30 07:40:52;;;;;;;1999.90;999.90;;;;;;;1.83;53.14;98377.13;5113477;28;20082;-64
2024/01/30 07:43:19;;;;;;;1999.90;999.90;;;;;;;1.59;53.70;98387.66;5113224;28;20052;-67
2024/01/30 07:45:48;;;;;;;1999.90;999.90;;;;;;;1.80;53.09;98378.78;5113255;28;20097;-64
2024/01/30 07:48:15;;;;;;;1999.90;999.90;;;;;;;1.71;53.29;98392.28;5113140;28;20385;-63
2024/01/30 07:50:42;;;;;;;1999.90;999.90;;;;;;;1.40;53.98;98374.28;5113356;28;20040;-66
2024/01/30 07:53:10;;;;;;;1999.90;999.90;;;;;;;2.07;52.60;98382.88;5113201;28;20052;-62
2024/01/30 07:55:37;;;;;;;1999.90;999.90;;;;;;;3.19;50.53;98384.63;5113140;28;20445;-64
2024/01/30 07:58:04;;;;;;;1999.90;999.90;;;;;;;4.20;46.49;98390.81;5113194;28;20083;-66
2024/01/30 08:00:31;;;;;;;1999.90;999.90;;;;;;;4.25;46.73;98384.84;5113316;28;20051;-67
2024/01/30 08:03:00;;;;;;;1999.90;999.90;;;;;;;5.26;43.92;98385.50;5113131;28;20044;-64
2024/01/30 08:05:27;;;;;;;1999.90;999.90;;;;;;;6.13;41.94;98384.72;5113278;28;20075;-68
2024/01/30 08:07:54;;;;;;;1999.90;999.90;;;;;;;6.84;40.10;98381.84;5112863;28;20416;-67
2024/01/30 08:10:21;;;;;;;1999.90;999.90;;;;;;;7.65;38.47;98383.94;5112937;28;20058;-64
2024/01/30 08:12:48;;;;;;;1999.90;999.90;;;;;;;7.98;37.93;98384.91;5113107;28;20054;-66
2024/01/30 08:15:15;;;;;;;1999.90;999.90;;;;;;;7.77;37.42;98389.19;5113021;28;20044;-67
2024/01/30 08:17:44;;;;;;;1999.90;999.90;;;;;;;7.99;36.93;98384.03;5112960;28;20048;-66
2024/01/30 08:20:13;;;;;;;1999.90;999.90;;;;;;;7.93;37.63;98384.03;5113194;28;20088;-65
2024/01/30 08:22:40;;;;;;;1999.90;999.90;;;;;;;8.16;37.21;98381.44;5113001;28;20043;-66
2024/01/30 08:25:09;;;;;;;1999.90;999.90;;;;;;;7.89;37.52;98385.72;5114975;28;20054;-68
2024/01/30 08:27:38;;;;;;;1999.90;999.90;;;;;;;7.49;37.84;98380.44;5116449;28;20144;-64
2024/01/30 08:30:07;;;;;;;1999.90;999.90;;;;;;;7.59;38.93;98385.66;5116618;28;20047;-65
2024/01/30 08:32:34;;;;;;;1999.90;999.90;;;;;;;7.04;38.70;98387.16;5116585;28;20048;-65
2024/01/30 08:35:03;;;;;;;1999.90;999.90;;;;;;;6.43;39.72;98397.13;5116487;28;20135;-65
2024/01/30 08:37:32;;;;;;;1999.90;999.90;;;;;;;6.01;40.38;98394.13;5116504;28;20044;-63
2024/01/30 08:39:59;;;;;;;1999.90;999.90;;;;;;;5.65;40.85;98393.75;5116358;28;20520;-64
2024/01/30 08:42:26;;;;;;;1999.90;999.90;;;;;;;5.32;42.34;98405.44;5116328;28;20093;-63
2024/01/30 08:44:54;;;;;;;1999.90;999.90;;;;;;;4.79;43.13;98397.81;5116646;28;20122;-63
2024/01/30 08:47:20;;;;;;;1999.90;999.90;;;;;;;4.45;44.58;98405.06;5116181;28;20077;-65
2024/01/30 08:49:47;;;;;;;1999.90;999.90;;;;;;;4.20;44.99;98399.47;5116446;28;20402;-67
2024/01/30 08:52:14;;;;;;;1999.90;999.90;;;;;;;3.92;45.96;98399.84;5116101;28;20048;-67
2024/01/30 08:54:43;;;;;;;1999.90;999.90;;;;;;;3.79;45.77;98396.16;5115884;28;20104;-66
2024/01/30 08:57:10;;;;;;;1999.90;999.90;;;;;;;3.53;46.65;98396.50;5116081;28;20537;-65
2024/01/30 08:59:37;;;;;;;1999.90;999.90;;;;;;;3.36;46.18;98391.00;5116029;28;20548;-65
2024/01/30 09:02:04;;;;;;;1999.90;999.90;;;;;;;3.39;46.84;98398.84;5115868;28;20097;-68
2024/01/30 09:04:32;;;;;;;1999.90;999.90;;;;;;;3.15;46.69;98402.66;5115962;28;20043;-65
2024/01/30 09:06:58;;;;;;;1999.90;999.90;;;;;;;2.95;47.24;98399.63;5115704;28;20409;-65
2024/01/30 09:09:25;;;;;;;1999.90;999.90;;;;;;;2.87;47.76;98406.34;5115932;28;20477;-64
2024/01/30 09:11:54;;;;;;;1999.90;999.90;;;;;;;2.59;47.91;98416.03;5115685;28;20048;-64
2024/01/30 09:14:21;;;;;;;1999.90;999.90;;;;;;;2.38;48.26;98400.03;5115823;28;20047;-66
2024/01/30 09:16:49;;;;;;;1999.90;999.90;;;;;;;2.20;49.06;98405.59;5115777;28;20155;-68
2024/01/30 09:19:16;;;;;;;1999.90;999.90;;;;;;;2.17;49.24;98399.50;5115574;28;20047;-67
2024/01/30 09:21:43;;;;;;;1999.90;999.90;;;;;;;2.12;49.37;98397.69;5115463;28;20044;-65
2024/01/30 09:24:10;;;;;;;1999.90;999.90;;;;;;;1.81;49.91;98399.47;5115592;28;20105;-65
2024/01/30 09:26:37;;;;;;;1999.90;999.90;;;;;;;1.76;50.23;98407.09;5115369;28;20451;-62
2024/01/30 09:29:06;;;;;;;1999.90;999.90;;;;;;;1.39;51.05;98398.31;5115299;28;20039;-65
2024/01/30 09:31:33;;;;;;;1999.90;999.90;;;;;;;1.49;51.28;98390.00;5115374;28;20056;-66
2024/01/30 09:34:00;;;;;;;1999.90;999.90;;;;;;;1.49;50.92;98386.53;5115419;28;20079;-65
2024/01/30 09:36:27;;;;;;;1999.90;999.90;;;;;;;1.45;51.27;98388.19;5114642;28;20157;-67
2024/01/30 09:38:54;;;;;;;1999.90;999.90;;;;;;;1.46;51.36;98395.09;5115346;28;20083;-62
2024/01/30 09:41:25;;;;;;;1999.90;999.90;;;;;;;1.39;51.86;98396.59;5115529;28;20048;-66
2024/01/30 09:43:51;;;;;;;;;;;;;;;1.37;51.67;98394.81;5115609;28;20131;-63
2024/01/30 09:46:22;;;;;;;1999.90;999.90;;;;;;;1.35;51.98;98402.50;5115071;28;19925;-66
2024/01/30 09:48:50;;;;;;;1999.90;999.90;;;;;;;1.33;52.14;98395.56;5115105;28;20051;-62
2024/01/30 09:51:18;;;;;;;1999.90;999.90;;;;;;;1.25;52.76;98392.75;5114986;28;20043;-62
2024/01/30 09:53:46;;;;;;;1999.90;999.90;;;;;;;1.15;53.30;98393.31;5114667;28;20047;-65
2024/01/30 09:56:14;;;;;;;1999.90;999.90;;;;;;;1.13;53.65;98393.28;5115022;28;20099;-67
2024/01/30 09:58:41;;;;;;;1999.90;999.90;;;;;;;1.18;53.58;98404.63;5114993;28;20568;-68
2024/01/30 10:01:08;;;;;;;1999.90;999.90;;;;;;;1.04;53.67;98399.03;5115035;28;20126;-66
2024/01/30 10:03:37;;;;;;;1999.90;999.90;;;;;;;1.03;53.68;98394.72;5114895;28;20071;-63
2024/01/30 10:06:04;;;;;;;1999.90;999.90;;;;;;;1.16;53.98;98401.09;5114627;28;20093;-66
2024/01/30 10:08:33;;;;;;;1999.90;999.90;;;;;;;1.29;53.81;98389.44;5114669;28;20138;-66
2024/01/30 10:11:01;;;;;;;1999.90;999.90;;;;;;;1.54;53.99;98395.31;5114970;28;20153;-64
2024/01/30 10:13:28;;;;;;;1999.90;999.90;;;;;;;1.98;53.54;98394.75;5114708;28;20048;-68
2024/01/30 10:15:58;;;;;;;1999.90;999.90;;;;;;;2.12;52.65;98399.38;5114653;28;20047;-66
2024/01/30 10:18:25;;;;;;;1999.90;999.90;;;;;;;2.09;51.79;98388.97;5114515;28;20489;-64
2024/01/30 10:20:53;;;;;;;1999.90;999.90;;;;;;;1.93;52.69;98392.88;5114403;28;20508;-65
2024/01/30 10:23:21;;;;;;;1999.90;999.90;;;;;;;1.96;52.50;98385.22;5114366;28;20044;-66
2024/01/30 10:25:48;;;;;;;1999.90;999.90;;;;;;;1.84;52.08;98378.03;5114603;28;20138;-69
2024/01/30 10:28:15;;;;;;;1999.90;999.90;;;;;;;1.83;52.68;98379.72;5114169;28;20044;-66
2024/01/30 10:30:42;;;;;;;1999.90;999.90;;;;;;;1.68;52.83;98372.44;5114511;28;20119;-63
2024/01/30 10:33:09;;;;;;;1999.90;999.90;;;;;;;1.73;53.21;98372.56;5114076;28;20087;-68
2024/01/30 10:35:43;;;;;;;1999.90;999.90;;;;;;;1.68;53.40;98376.75;5113909;28;20089;-64
2024/01/30 10:38:15;;;;;;;1999.90;999.90;;;;;;;1.75;53.55;98374.34;5114105;28;20043;-65
2024/01/30 10:40:44;;;;;;;1999.90;999.90;;;;;;;1.61;53.04;98374.00;5114065;28;20074;-67
2024/01/30 10:43:15;;;;;;;1999.90;999.90;;;;;;;1.68;52.75;98381.91;5114199;28;20048;-66
2024/01/30 10:45:46;;;;;;;1999.90;999.90;;;;;;;1.69;52.94;98374.22;5113914;28;20097;-63
2024/01/30 10:48:14;;;;;;;1999.90;999.90;;;;;;;1.69;52.78;98378.50;5113758;28;20102;-65
2024/01/30 10:50:43;;;;;;;1999.90;999.90;;;;;;;1.70;52.68;98375.06;5113920;28;20044;-66
2024/01/30 10:53:13;;;;;;;1999.90;999.90;;;;;;;1.71;51.81;98366.47;5114032;28;20047;-68
2024/01/30 10:55:40;;;;;;;1999.90;999.90;;;;;;;1.60;52.17;98359.31;5113709;28;20474;-65
2024/01/30 10:58:11;;;;;;;1999.90;999.90;;;;;;;1.51;52.63;98365.09;5113973;28;20055;-68
2024/01/30 11:00:39;;;;;;;1999.90;999.90;;;;;;;1.47;52.83;98360.69;5113792;28;20039;-67